Time;durP1;ratioP1;P1;durP2;ratioP2;P2;SDS_P1;SDS_P2;PMS_P1;PMS_P2;Temp;Humidity;BMP_temperature;BMP_pressure;BME280_temperature;BME280_humidity;BME280_pressure;Samples;Min_cycle;Max_cycle;Signal;HPM_P1;HPM_P2
2022/06/22 00:01:33;;;;;;;1.27;1.00;;;;;;;20.47;40.79;99254.00;4482412;32;33003;-83
2022/06/22 00:04:04;;;;;;;4.30;1.00;;;;;;;20.21;41.36;99260.84;4474666;32;33563;-83
2022/06/22 00:06:37;;;;;;;0.90;0.88;;;;;;;20.15;41.64;99262.06;4485872;32;34770;-83
2022/06/22 00:09:06;;;;;;;1.48;1.25;;;;;;;20.08;41.71;99268.63;4471795;32;33079;-84
2022/06/22 00:11:36;;;;;;;2.03;1.20;;;;;;;20.18;41.78;99269.78;4479666;32;31935;-83
2022/06/22 00:14:06;;;;;;;1.48;1.10;;;;;;;20.03;42.13;99263.63;4468195;32;32526;-83
2022/06/22 00:16:37;;;;;;;1.02;0.90;;;;;;;20.21;41.54;99259.06;4488975;32;34303;-83
2022/06/22 00:19:19;;;;;;;1.23;0.90;;;;;;;20.12;42.01;99249.06;4490868;31;33706;-83
2022/06/22 00:21:50;;;;;;;0.95;0.77;;;;;;;20.21;41.68;99251.16;4474708;32;33836;-83
2022/06/22 00:24:37;;;;;;;0.70;0.70;;;;;;;20.15;42.18;99254.16;4472859;32;33803;-83
2022/06/22 00:27:30;;;;;;;0.98;0.80;;;;;;;20.14;42.05;99256.88;4459106;32;33753;-83
2022/06/22 00:30:13;;;;;;;1.33;0.90;;;;;;;20.00;42.26;99263.78;4457846;32;34605;-83
2022/06/22 00:33:12;;;;;;;1.23;0.80;;;;;;;19.98;42.59;99263.06;4467023;32;33821;-83
2022/06/22 00:35:46;;;;;;;0.70;0.70;;;;;;;20.05;41.98;99258.25;4474577;32;33905;-83
2022/06/22 00:38:17;;;;;;;1.05;0.70;;;;;;;20.11;42.01;99260.53;4480417;32;34021;-83
2022/06/22 00:40:49;;;;;;;2.15;0.70;;;;;;;19.90;43.05;99267.06;4472794;32;33820;-83
2022/06/22 00:43:18;;;;;;;0.77;0.77;;;;;;;20.06;42.71;99274.94;4474449;32;33235;-84
2022/06/22 00:45:49;;;;;;;2.78;1.00;;;;;;;20.09;42.56;99266.84;4474582;32;33948;-83
2022/06/22 00:48:24;;;;;;;3.90;1.00;;;;;;;19.99;42.83;99261.28;4472074;32;33647;-83
2022/06/22 00:50:58;;;;;;;1.30;0.77;;;;;;;20.00;42.78;99260.31;4477226;32;33252;-83
2022/06/22 00:53:32;;;;;;;1.00;0.90;;;;;;;19.77;43.60;99253.78;4465524;32;31069;-83
2022/06/22 00:56:09;;;;;;;3.03;2.35;;;;;;;19.72;43.61;99254.06;4474574;32;33582;-83
2022/06/22 00:58:42;;;;;;;1.83;1.10;;;;;;;19.82;43.12;99247.31;4469687;32;33994;-83
2022/06/22 01:01:18;;;;;;;4.15;0.98;;;;;;;19.89;43.16;99253.06;4464437;32;34012;-84
2022/06/22 01:03:51;;;;;;;1.90;1.00;;;;;;;19.82;43.23;99255.19;4461336;32;33661;-83
2022/06/22 01:06:28;;;;;;;1.17;0.82;;;;;;;19.82;43.23;99255.19;4460576;32;33803;-83
2022/06/22 01:09:04;;;;;;;1.35;0.90;;;;;;;19.83;43.00;99264.78;4467614;32;33976;-83
2022/06/22 01:14:27;;;;;;;1.60;1.00;;;;;;;19.67;43.54;99268.34;4463126;32;33326;-85
2022/06/22 01:16:59;;;;;;;1.15;0.77;;;;;;;19.54;43.91;99266.44;4462195;32;33744;-83
2022/06/22 01:19:39;;;;;;;0.80;0.80;;;;;;;19.65;43.76;99279.00;4461437;32;34600;-83
2022/06/22 01:22:36;;;;;;;1.10;1.00;;;;;;;19.81;43.19;99273.72;4461594;32;33862;-84
2022/06/22 01:25:19;;;;;;;1.33;0.98;;;;;;;19.61;43.54;99262.50;4462958;32;33914;-83
2022/06/22 01:27:49;;;;;;;1.52;1.10;;;;;;;19.64;43.45;99247.50;4459846;32;32923;-83
2022/06/22 01:30:22;;;;;;;3.78;1.27;;;;;;;19.56;43.15;99256.66;4460580;32;34602;-83
2022/06/22 01:32:51;;;;;;;1.05;0.80;;;;;;;19.22;44.27;99255.09;4458873;32;34343;-82
2022/06/22 01:35:25;;;;;;;3.08;0.90;;;;;;;19.39;44.30;99268.16;4455984;32;33322;-83
2022/06/22 01:37:54;;;;;;;1.02;0.90;;;;;;;19.17;45.02;99265.03;4461183;32;33863;-83
2022/06/22 01:40:24;;;;;;;2.00;1.20;;;;;;;19.22;45.03;99256.88;4462268;32;34013;-84
2022/06/22 01:42:58;;;;;;;2.65;1.20;;;;;;;19.33;45.18;99257.13;4468104;32;33780;-85
2022/06/22 01:45:33;;;;;;;2.67;0.95;;;;;;;19.41;45.13;99257.56;4464242;32;33242;-83
2022/06/22 01:48:07;;;;;;;1.02;0.90;;;;;;;19.41;45.15;99260.19;4459043;32;34457;-83
2022/06/22 01:50:38;;;;;;;1.42;0.80;;;;;;;19.11;45.65;99253.06;4460838;32;34627;-83
2022/06/22 01:53:12;;;;;;;1.23;1.00;;;;;;;19.12;45.69;99256.56;4461719;32;34432;-84
2022/06/22 01:55:46;;;;;;;1.00;0.90;;;;;;;19.06;45.39;99257.72;4463019;32;34047;-83
2022/06/22 01:58:33;;;;;;;2.20;1.48;;;;;;;19.04;45.77;99243.84;4469400;32;33552;-84
2022/06/22 02:01:10;;;;;;;1.02;0.95;;;;;;;19.02;45.42;99256.22;4458228;32;34588;-83
2022/06/22 02:03:44;;;;;;;3.33;1.40;;;;;;;18.94;46.03;99264.53;4460890;32;34112;-83
2022/06/22 02:09:08;;;;;;;1.10;1.00;;;;;;;18.91;46.09;99264.66;4462543;32;33547;-83
2022/06/22 02:11:42;;;;;;;1.55;1.00;;;;;;;19.16;45.40;99264.19;4461483;32;33691;-83
2022/06/22 02:14:16;;;;;;;1.77;1.20;;;;;;;18.92;46.11;99257.66;4451491;32;34416;-83
2022/06/22 02:16:48;;;;;;;0.90;0.90;;;;;;;19.02;45.63;99271.13;4466485;32;32579;-84
2022/06/22 02:19:18;;;;;;;1.55;1.10;;;;;;;18.80;45.90;99289.81;4466326;32;34616;-82
2022/06/22 02:21:49;;;;;;;1.27;1.10;;;;;;;18.68;46.16;99286.91;4461143;32;33270;-83
2022/06/22 02:24:21;;;;;;;1.48;1.08;;;;;;;18.58;46.87;99293.59;4461505;32;33097;-82
2022/06/22 02:26:52;;;;;;;1.83;1.00;;;;;;;18.44;47.34;99290.81;4462063;32;33856;-82
2022/06/22 02:29:26;;;;;;;1.45;1.12;;;;;;;18.45;47.30;99288.09;4462645;32;33764;-83
2022/06/22 02:31:58;;;;;;;1.80;1.33;;;;;;;18.57;47.57;99289.25;4465590;32;33899;-83
2022/06/22 02:34:27;;;;;;;1.52;1.20;;;;;;;18.52;47.53;99301.78;4460082;32;34505;-83
2022/06/22 02:36:57;;;;;;;2.72;1.23;;;;;;;18.60;47.76;99293.47;4461039;32;32994;-83
2022/06/22 02:39:27;;;;;;;1.20;1.10;;;;;;;18.49;47.87;99297.53;4456146;32;33922;-83
2022/06/22 02:44:44;;;;;;;1.00;0.90;;;;;;;18.65;47.80;99294.09;4452492;32;34454;-83
2022/06/22 02:47:19;;;;;;;1.60;1.10;;;;;;;18.54;47.91;99297.28;4465876;32;32081;-83
2022/06/22 02:49:51;;;;;;;1.17;1.08;;;;;;;18.48;48.29;99306.34;4460324;32;33524;-83
2022/06/22 02:52:21;;;;;;;2.33;1.55;;;;;;;18.71;47.85;99306.91;4460655;32;33957;-84
2022/06/22 02:54:53;;;;;;;2.00;1.10;;;;;;;18.66;47.66;99309.78;4450937;32;33644;-84
2022/06/22 02:57:33;;;;;;;1.08;1.02;;;;;;;18.57;47.94;99320.75;4463303;32;33432;-84
2022/06/22 03:00:05;;;;;;;1.73;1.00;;;;;;;18.49;47.99;99317.69;4462671;32;33780;-83
2022/06/22 03:02:34;;;;;;;3.92;1.65;;;;;;;18.71;47.40;99317.41;4463820;32;33845;-82
2022/06/22 03:05:05;;;;;;;1.55;1.12;;;;;;;18.58;47.88;99330.34;4461063;32;33754;-83
2022/06/22 03:07:38;;;;;;;1.33;1.10;;;;;;;18.40;48.46;99333.94;4461352;32;34159;-84
2022/06/22 03:10:08;;;;;;;1.20;0.90;;;;;;;18.51;47.97;99332.44;4461390;32;33772;-83
2022/06/22 03:12:38;;;;;;;1.27;1.17;;;;;;;18.37;48.59;99334.94;4458963;32;33558;-83
2022/06/22 03:15:14;;;;;;;1.83;1.50;;;;;;;18.52;48.32;99334.12;4461064;32;32794;-83
2022/06/22 03:17:43;;;;;;;1.00;0.90;;;;;;;18.47;48.44;99332.69;4466356;32;31634;-83
2022/06/22 03:20:14;;;;;;;3.50;1.00;;;;;;;18.41;48.43;99330.34;4463220;32;34510;-83
2022/06/22 03:22:45;;;;;;;5.68;1.45;;;;;;;18.34;48.74;99328.06;4449931;32;34001;-82
2022/06/22 03:25:19;;;;;;;1.25;1.08;;;;;;;18.49;48.30;99325.56;4457779;32;33600;-83
2022/06/22 03:27:52;;;;;;;1.00;0.85;;;;;;;18.47;48.45;99336.16;4461900;32;33975;-83
2022/06/22 03:30:26;;;;;;;1.05;0.95;;;;;;;18.63;47.75;99343.22;4465577;32;33552;-83
2022/06/22 03:32:59;;;;;;;1.67;1.15;;;;;;;18.50;47.84;99348.28;4465246;32;33644;-83
2022/06/22 03:35:33;;;;;;;1.30;1.00;;;;;;;18.21;48.69;99352.38;4461637;32;33719;-83
2022/06/22 03:38:06;;;;;;;1.60;1.42;;;;;;;18.27;49.11;99342.44;4461246;32;33352;-83
2022/06/22 03:40:38;;;;;;;3.10;1.35;;;;;;;18.23;49.15;99340.88;4461700;32;34252;-83
2022/06/22 03:43:11;;;;;;;1.20;0.90;;;;;;;18.27;49.10;99337.19;4462939;32;34550;-83
2022/06/22 03:45:45;;;;;;;1.40;0.90;;;;;;;18.45;48.61;99339.78;4468243;32;33388;-83
2022/06/22 03:48:25;;;;;;;1.05;0.95;;;;;;;18.40;48.88;99329.50;4468082;32;33276;-83
2022/06/22 03:51:00;;;;;;;1.85;1.33;;;;;;;18.46;48.51;99326.59;4462923;32;34154;-83
2022/06/22 03:53:35;;;;;;;1.35;0.98;;;;;;;18.71;47.86;99333.19;4462674;32;33927;-83
2022/06/22 03:56:06;;;;;;;2.15;1.00;;;;;;;18.68;47.26;99322.84;4462383;32;34421;-83
2022/06/22 03:58:35;;;;;;;5.20;0.88;;;;;;;18.96;47.07;99324.88;4462467;32;33220;-83
2022/06/22 04:01:06;;;;;;;3.83;0.90;;;;;;;19.06;46.67;99307.66;4463167;32;33445;-83
2022/06/22 04:03:35;;;;;;;1.48;0.90;;;;;;;19.28;46.09;99294.22;4465821;32;33972;-83
2022/06/22 04:06:05;;;;;;;1.17;1.08;;;;;;;19.34;46.51;99293.03;4461862;32;33490;-83
2022/06/22 04:08:36;;;;;;;1.45;0.88;;;;;;;19.44;44.73;99296.84;4461440;32;32961;-83
2022/06/22 04:11:08;;;;;;;1.62;0.90;;;;;;;19.50;44.99;99285.09;4461454;32;34648;-83
2022/06/22 04:13:41;;;;;;;1.83;1.05;;;;;;;19.57;45.51;99281.19;4461438;32;34030;-83
2022/06/22 04:16:15;;;;;;;1.20;1.00;;;;;;;19.61;45.90;99283.56;4466857;32;34045;-83
2022/06/22 04:18:49;;;;;;;3.85;0.93;;;;;;;19.79;45.51;99286.97;4460979;32;34033;-84
2022/06/22 04:21:23;;;;;;;0.88;0.88;;;;;;;20.04;45.56;99281.12;4461072;32;33784;-83
2022/06/22 04:23:54;;;;;;;1.05;0.90;;;;;;;20.13;45.34;99282.38;4458840;32;33656;-83
2022/06/22 04:26:26;;;;;;;1.95;1.25;;;;;;;20.14;44.97;99283.22;4455986;32;34457;-83
2022/06/22 04:28:57;;;;;;;0.85;0.80;;;;;;;20.29;44.42;99286.72;4457979;32;33338;-83
2022/06/22 04:31:31;;;;;;;1.80;1.20;;;;;;;20.33;44.19;99281.19;4467159;32;33976;-83
2022/06/22 04:34:01;;;;;;;1.90;1.17;;;;;;;20.34;45.09;99282.88;4460043;32;33225;-83
2022/06/22 04:36:37;;;;;;;1.55;0.90;;;;;;;20.27;44.54;99292.06;4460724;32;33704;-83
2022/06/22 04:39:13;;;;;;;0.70;0.70;;;;;;;20.22;44.85;99283.59;4462321;32;32893;-83
2022/06/22 04:41:43;;;;;;;0.85;0.68;;;;;;;20.21;44.44;99281.91;4463526;32;33338;-83
2022/06/22 04:44:16;;;;;;;2.92;1.00;;;;;;;20.60;43.75;99277.84;4462834;32;34521;-83
2022/06/22 04:46:48;;;;;;;1.12;0.80;;;;;;;20.85;43.46;99293.88;4468243;32;33933;-85
2022/06/22 04:49:23;;;;;;;0.80;0.80;;;;;;;21.23;41.90;99293.22;4461159;32;34165;-83
2022/06/22 04:51:58;;;;;;;0.85;0.73;;;;;;;21.70;42.01;99301.72;4462190;32;33859;-85
2022/06/22 04:54:29;;;;;;;2.50;0.88;;;;;;;22.92;38.35;99302.28;4447379;32;33659;-85
2022/06/22 04:57:09;;;;;;;1.70;0.90;;;;;;;23.42;37.15;99300.50;4461973;32;33737;-85
2022/06/22 04:59:39;;;;;;;0.77;0.70;;;;;;;24.12;35.49;99302.41;4461186;32;33433;-83
2022/06/22 05:02:12;;;;;;;1.10;0.80;;;;;;;24.03;35.96;99311.06;4469641;32;33682;-83
2022/06/22 05:04:43;;;;;;;1.95;1.00;;;;;;;24.35;34.25;99310.41;4460185;32;33973;-83
2022/06/22 05:07:27;;;;;;;0.93;0.77;;;;;;;24.11;35.47;99319.25;4463132;32;33520;-83
2022/06/22 05:09:58;;;;;;;0.90;0.60;;;;;;;24.45;35.35;99322.87;4462220;32;34073;-83
2022/06/22 05:12:44;;;;;;;1.45;0.85;;;;;;;24.25;35.18;99318.22;4463243;32;34476;-84
2022/06/22 05:15:19;;;;;;;1.20;0.75;;;;;;;24.04;35.65;99331.28;4461760;32;34030;-83
2022/06/22 05:17:50;;;;;;;1.08;0.85;;;;;;;23.55;36.42;99326.94;4463843;32;33703;-85
2022/06/22 05:20:24;;;;;;;0.50;0.50;;;;;;;23.90;36.49;99332.34;4465205;32;32051;-84
2022/06/22 05:22:55;;;;;;;1.25;0.75;;;;;;;24.19;35.17;99339.91;4461518;32;34742;-83
2022/06/22 05:25:24;;;;;;;0.73;0.60;;;;;;;23.91;36.73;99341.97;4463384;32;34468;-83
2022/06/22 05:28:01;;;;;;;2.87;0.98;;;;;;;24.17;35.98;99355.91;4461543;32;33105;-84
2022/06/22 05:30:33;;;;;;;1.62;0.80;;;;;;;23.87;36.88;99356.38;4446034;32;32763;-84
2022/06/22 05:33:10;;;;;;;2.00;1.62;;;;;;;24.15;36.26;99357.84;4447176;32;33971;-83
2022/06/22 05:35:42;;;;;;;1.17;0.70;;;;;;;24.13;36.20;99350.97;4465016;32;33368;-84
2022/06/22 05:38:11;;;;;;;1.02;0.88;;;;;;;24.13;35.87;99350.97;4463932;32;33826;-85
2022/06/22 05:40:40;;;;;;;1.95;1.12;;;;;;;24.22;35.68;99348.47;4462949;32;32719;-83
2022/06/22 05:43:09;;;;;;;0.68;0.60;;;;;;;23.99;35.35;99342.25;4462870;32;33799;-84
2022/06/22 05:45:43;;;;;;;1.37;0.90;;;;;;;23.77;36.54;99350.91;4458033;32;33589;-85
2022/06/22 05:48:17;;;;;;;1.73;0.70;;;;;;;23.64;36.45;99350.94;4453494;32;34366;-84
2022/06/22 05:50:54;;;;;;;1.10;0.88;;;;;;;23.83;36.51;99347.81;4463939;32;33134;-84
2022/06/22 05:53:27;;;;;;;0.73;0.70;;;;;;;23.64;36.28;99353.59;4458970;32;35346;-84
2022/06/22 05:56:15;;;;;;;1.08;0.70;;;;;;;23.74;37.00;99350.31;4460854;32;34122;-83
2022/06/22 05:58:54;;;;;;;0.93;0.70;;;;;;;23.84;36.36;99352.16;4460894;32;33349;-84
2022/06/22 06:01:31;;;;;;;0.70;0.70;;;;;;;23.79;36.65;99349.00;4463163;32;33369;-85
2022/06/22 06:04:05;;;;;;;0.95;0.62;;;;;;;23.59;36.03;99358.38;4455820;32;33871;-85
2022/06/22 06:06:39;;;;;;;0.65;0.60;;;;;;;23.23;37.15;99366.31;4462914;32;33984;-85
2022/06/22 06:09:14;;;;;;;1.98;0.80;;;;;;;23.07;37.04;99369.19;4462660;32;33796;-85
2022/06/22 06:11:46;;;;;;;0.85;0.70;;;;;;;22.89;37.97;99374.78;4460548;32;33135;-84
2022/06/22 06:14:24;;;;;;;2.17;0.90;;;;;;;23.10;37.86;99368.94;4440827;32;34053;-85
2022/06/22 06:16:55;;;;;;;1.02;0.70;;;;;;;22.79;37.90;99360.50;4464661;32;34016;-84
2022/06/22 06:19:29;;;;;;;1.55;0.80;;;;;;;22.88;37.81;99365.16;4470509;32;33610;-84
2022/06/22 06:22:00;;;;;;;1.20;0.80;;;;;;;22.81;37.90;99363.88;4469674;32;31335;-84
2022/06/22 06:24:34;;;;;;;0.70;0.65;;;;;;;22.91;37.73;99357.00;4458057;32;33514;-84
2022/06/22 06:29:57;;;;;;;1.37;1.00;;;;;;;23.02;37.67;99369.50;4450985;32;33267;-85
2022/06/22 06:32:37;;;;;;;2.58;0.80;;;;;;;23.20;37.79;99354.97;4458865;32;32598;-84
2022/06/22 06:35:13;;;;;;;1.42;0.80;;;;;;;22.79;37.96;99360.50;4459122;32;33914;-85
2022/06/22 06:37:47;;;;;;;1.08;0.60;;;;;;;23.11;37.75;99354.78;4465053;32;33902;-85
2022/06/22 06:40:21;;;;;;;1.12;0.77;;;;;;;22.92;38.64;99352.56;4466934;32;34473;-84
2022/06/22 06:42:53;;;;;;;0.77;0.68;;;;;;;23.35;37.38;99352.19;4463507;32;33994;-85
2022/06/22 06:45:24;;;;;;;1.10;0.68;;;;;;;23.45;37.02;99353.22;4459315;32;33899;-84
2022/06/22 06:47:56;;;;;;;1.27;0.70;;;;;;;23.15;36.73;99350.97;4451488;32;33377;-84
2022/06/22 06:50:31;;;;;;;0.90;0.60;;;;;;;22.74;37.19;99344.09;4460419;32;34347;-85
2022/06/22 06:53:06;;;;;;;1.10;0.68;;;;;;;23.31;35.94;99346.28;4459597;32;33992;-84
2022/06/22 06:55:41;;;;;;;2.67;1.10;;;;;;;23.28;36.22;99349.12;4466087;32;34648;-84
2022/06/22 06:58:16;;;;;;;0.80;0.62;;;;;;;23.42;35.98;99356.94;4457153;32;33970;-84
2022/06/22 07:00:46;;;;;;;0.60;0.60;;;;;;;23.45;35.60;99357.69;4461976;32;33907;-84
2022/06/22 07:03:19;;;;;;;0.50;0.50;;;;;;;23.48;36.32;99357.47;4458103;32;32961;-84
2022/06/22 07:05:50;;;;;;;1.00;0.60;;;;;;;23.37;36.40;99360.87;4461586;32;33636;-84
2022/06/22 07:08:20;;;;;;;1.85;0.93;;;;;;;23.23;35.52;99348.62;4461396;32;33266;-84
2022/06/22 07:11:15;;;;;;;0.88;0.60;;;;;;;23.59;35.13;99347.78;4465142;32;34564;-84
2022/06/22 07:13:47;;;;;;;1.00;0.55;;;;;;;23.66;33.93;99329.66;4467958;32;34368;-84
2022/06/22 07:16:20;;;;;;;1.25;0.82;;;;;;;23.62;34.23;99330.81;4461427;32;34448;-84
2022/06/22 07:18:51;;;;;;;0.62;0.60;;;;;;;23.77;34.74;99335.03;4461797;32;34394;-84
2022/06/22 07:21:26;;;;;;;0.47;0.43;;;;;;;23.43;35.92;99332.16;4460039;32;33518;-84
2022/06/22 07:24:00;;;;;;;1.87;0.62;;;;;;;23.38;34.43;99325.50;4463264;32;34134;-85
2022/06/22 07:26:39;;;;;;;0.62;0.62;;;;;;;23.57;34.75;99330.31;4470294;32;34634;-85
2022/06/22 07:29:13;;;;;;;1.45;0.62;;;;;;;24.04;34.49;99320.69;4464901;32;34666;-84
2022/06/22 07:31:46;;;;;;;0.70;0.68;;;;;;;24.08;34.19;99330.09;4459591;32;33809;-84
2022/06/22 07:34:18;;;;;;;0.50;0.50;;;;;;;24.21;33.88;99338.84;4457693;32;33311;-84
2022/06/22 07:36:53;;;;;;;0.62;0.50;;;;;;;24.00;33.88;99321.91;4457655;32;33735;-84
2022/06/22 07:39:25;;;;;;;1.58;0.62;;;;;;;24.15;32.33;99326.03;4458629;32;33775;-85
2022/06/22 07:41:54;;;;;;;1.00;0.60;;;;;;;24.07;32.95;99336.38;4460716;32;33417;-85
2022/06/22 07:44:25;;;;;;;0.82;0.47;;;;;;;24.00;34.01;99337.78;4461764;32;33520;-85
2022/06/22 07:47:00;;;;;;;0.62;0.52;;;;;;;24.10;32.74;99327.34;4455119;32;33033;-84
2022/06/22 07:49:39;;;;;;;7.53;0.80;;;;;;;24.53;31.36;99324.13;4460997;32;33755;-85
2022/06/22 07:52:17;;;;;;;1.37;0.70;;;;;;;24.20;31.13;99323.88;4461599;32;33657;-84
2022/06/22 07:54:48;;;;;;;2.85;0.77;;;;;;;24.48;31.11;99330.63;4459832;32;34102;-85
2022/06/22 07:57:31;;;;;;;0.60;0.50;;;;;;;24.48;31.83;99330.63;4462077;32;34069;-84
2022/06/22 08:00:11;;;;;;;0.57;0.55;;;;;;;24.97;30.93;99325.97;4464270;32;34836;-84
2022/06/22 08:02:50;;;;;;;0.70;0.50;;;;;;;24.75;30.45;99329.44;4461758;32;33222;-85
2022/06/22 08:05:21;;;;;;;0.43;0.43;;;;;;;24.79;31.70;99330.03;4457775;32;32934;-84
2022/06/22 08:07:57;;;;;;;1.48;1.00;;;;;;;24.69;29.13;99317.50;4452500;32;34581;-84
2022/06/22 08:10:31;;;;;;;1.08;0.60;;;;;;;24.50;29.28;99311.94;4448130;32;33365;-84
2022/06/22 08:13:03;;;;;;;4.30;0.95;;;;;;;24.51;30.21;99310.97;4449953;32;33013;-84
2022/06/22 08:15:36;;;;;;;2.28;0.60;;;;;;;24.52;31.46;99306.50;4454281;32;33302;-84
2022/06/22 08:18:07;;;;;;;1.27;0.60;;;;;;;24.70;30.03;99313.06;4449716;32;34570;-84
2022/06/22 08:20:39;;;;;;;0.50;0.50;;;;;;;24.58;30.49;99304.22;4448168;32;34137;-84
2022/06/22 08:23:16;;;;;;;0.50;0.43;;;;;;;25.04;30.13;99302.44;4449093;32;33434;-84
2022/06/22 08:26:03;;;;;;;0.73;0.60;;;;;;;25.28;28.98;99304.97;4458649;32;33348;-84
2022/06/22 08:28:35;;;;;;;0.40;0.40;;;;;;;25.51;29.44;99300.44;4451152;32;32832;-85
2022/06/22 08:31:04;;;;;;;0.98;0.57;;;;;;;25.02;29.99;99299.91;4458407;32;31929;-84
2022/06/22 08:33:36;;;;;;;0.60;0.32;;;;;;;25.36;27.78;99296.38;4450143;32;33660;-84
2022/06/22 08:36:11;;;;;;;0.75;0.40;;;;;;;25.44;28.79;99293.94;4454253;32;33479;-85
2022/06/22 08:38:44;;;;;;;0.40;0.40;;;;;;;25.39;27.95;99296.97;4454362;32;33550;-84
2022/06/22 08:41:23;;;;;;;0.73;0.40;;;;;;;25.02;29.95;99294.59;4459734;32;34649;-84
2022/06/22 08:44:00;;;;;;;2.00;0.57;;;;;;;25.45;30.38;99291.16;4451674;32;34500;-85
2022/06/22 08:46:52;;;;;;;1.98;0.62;;;;;;;25.34;28.06;99294.69;4457007;32;34051;-84
2022/06/22 08:49:53;;;;;;;1.12;0.65;;;;;;;25.35;28.71;99290.25;4455618;32;34298;-85
2022/06/22 08:52:36;;;;;;;0.45;0.40;;;;;;;25.13;29.25;99296.41;4459609;32;34531;-84
2022/06/22 08:55:43;;;;;;;0.47;0.32;;;;;;;25.24;28.11;99287.59;4461077;32;33876;-85
2022/06/22 08:58:26;;;;;;;0.88;0.45;;;;;;;25.49;27.75;99297.94;4459184;32;34030;-85
2022/06/22 09:01:01;;;;;;;1.12;0.60;;;;;;;25.58;27.28;99304.28;4455067;32;33524;-85
2022/06/22 09:03:43;;;;;;;0.32;0.32;;;;;;;25.51;27.13;99295.13;4451238;32;34782;-84
2022/06/22 09:06:20;;;;;;;;;;;;;;;25.54;26.84;99290.44;4454329;32;34495;-85
2022/06/22 09:09:08;;;;;;;0.62;0.50;;;;;;;25.77;25.71;99306.28;4446661;32;32672;-84
2022/06/22 09:11:42;;;;;;;1.02;0.75;;;;;;;25.47;27.16;99297.22;4449554;32;33265;-84
2022/06/22 09:14:30;;;;;;;1.10;0.40;;;;;;;25.31;24.92;99294.94;4462208;32;34113;-84
2022/06/22 09:17:09;;;;;;;0.30;0.30;;;;;;;25.47;25.60;99302.53;4457192;32;34033;-84
2022/06/22 09:19:54;;;;;;;0.62;0.43;;;;;;;25.62;23.89;99300.41;4454136;32;32612;-84
2022/06/22 09:22:30;;;;;;;0.25;0.25;;;;;;;25.61;23.07;99300.53;4452063;32;33463;-84
2022/06/22 09:25:04;;;;;;;0.30;0.30;;;;;;;25.23;23.58;99297.38;4454853;32;34674;-85
2022/06/22 09:27:41;;;;;;;0.30;0.30;;;;;;;25.60;23.26;99294.38;4454811;32;33725;-85
2022/06/22 09:30:20;;;;;;;0.32;0.30;;;;;;;25.82;22.91;99287.31;4454738;32;32906;-84
2022/06/22 09:33:13;;;;;;;0.30;0.30;;;;;;;25.96;24.63;99276.41;4450934;32;33581;-84
2022/06/22 09:36:01;;;;;;;1.42;0.40;;;;;;;26.21;23.84;99277.00;4456856;32;34917;-84
2022/06/22 09:38:48;;;;;;;1.65;0.30;;;;;;;26.10;22.27;99276.09;4460599;32;33333;-84
2022/06/22 09:41:26;;;;;;;0.68;0.50;;;;;;;25.94;22.68;99281.84;4461045;32;33979;-85
2022/06/22 09:44:43;;;;;;;0.40;0.40;;;;;;;25.95;24.47;99285.31;4461632;32;33784;-84
2022/06/22 09:47:45;;;;;;;0.40;0.40;;;;;;;26.50;23.15;99274.50;4407177;32;33744;-85
2022/06/22 09:50:37;;;;;;;0.68;0.30;;;;;;;26.29;24.81;99279.81;4408055;32;33953;-85
2022/06/22 09:53:37;;;;;;;1.15;0.50;;;;;;;26.61;25.10;99279.78;4404138;32;33030;-84
2022/06/22 09:56:20;;;;;;;0.20;0.20;;;;;;;26.86;22.21;99285.63;4359920;32;32641;-85
2022/06/22 09:59:19;;;;;;;0.30;0.30;;;;;;;26.66;22.46;99274.91;4359277;32;33838;-85
2022/06/22 10:02:01;;;;;;;0.80;0.43;;;;;;;27.13;22.13;99275.19;4354140;32;33480;-85
2022/06/22 10:05:01;;;;;;;0.30;0.30;;;;;;;26.86;22.70;99272.31;4353338;32;32917;-84
2022/06/22 10:07:48;;;;;;;0.50;0.40;;;;;;;27.01;21.83;99276.28;4343942;32;33718;-84
2022/06/22 10:10:27;;;;;;;0.32;0.32;;;;;;;26.88;23.15;99286.34;4356142;32;33959;-84
2022/06/22 10:13:10;;;;;;;0.28;0.28;;;;;;;27.09;22.55;99283.59;4353231;32;33621;-85
2022/06/22 10:15:48;;;;;;;0.40;0.40;;;;;;;27.37;21.50;99272.19;4355539;32;32472;-85
2022/06/22 10:18:36;;;;;;;0.32;0.30;;;;;;;27.26;21.46;99275.00;4376685;32;33730;-85
2022/06/22 10:21:11;;;;;;;0.62;0.45;;;;;;;27.50;22.58;99276.41;4381419;32;34092;-85
2022/06/22 10:24:10;;;;;;;0.28;0.28;;;;;;;27.32;21.02;99278.91;4381842;32;34240;-85
2022/06/22 10:26:48;;;;;;;0.85;0.50;;;;;;;27.39;22.44;99280.06;4388383;32;32113;-85
2022/06/22 10:29:54;;;;;;;0.28;0.28;;;;;;;27.45;23.33;99284.84;4389514;32;34496;-85
2022/06/22 10:32:43;;;;;;;1.45;0.88;;;;;;;27.65;22.34;99286.53;4384172;32;33990;-84
2022/06/22 10:35:22;;;;;;;1.33;0.30;;;;;;;27.94;21.04;99285.72;4459147;32;33350;-84
2022/06/22 10:38:05;;;;;;;0.30;0.30;;;;;;;27.97;21.28;99290.78;4452746;32;34094;-84
2022/06/22 10:46:31;;;;;;;0.77;0.20;;;;;;;28.23;23.26;99280.34;4467827;32;33445;-84
2022/06/22 10:49:30;;;;;;;0.52;0.30;;;;;;;28.11;20.76;99289.50;4458108;32;34019;-84
2022/06/22 10:52:20;;;;;;;0.55;0.40;;;;;;;27.76;21.71;99287.38;4440234;32;32809;-84
2022/06/22 10:55:22;;;;;;;0.40;0.30;;;;;;;27.86;21.14;99282.94;4462126;32;32393;-84
2022/06/22 10:58:00;;;;;;;0.40;0.32;;;;;;;28.02;21.75;99296.50;4452424;32;33758;-85
2022/06/22 11:00:40;;;;;;;0.73;0.50;;;;;;;28.48;22.33;99289.59;4456402;32;33103;-84
2022/06/22 11:03:44;;;;;;;0.52;0.40;;;;;;;28.54;21.87;99279.31;4458577;32;33416;-85
2022/06/22 11:06:23;;;;;;;1.37;0.50;;;;;;;28.78;23.25;99282.34;4456760;32;34084;-84
2022/06/22 11:09:15;;;;;;;0.30;0.30;;;;;;;28.82;21.42;99280.22;4455948;32;33081;-84
2022/06/22 11:11:59;;;;;;;0.30;0.30;;;;;;;28.50;21.16;99284.94;4450875;32;33775;-85
2022/06/22 11:14:54;;;;;;;0.57;0.43;;;;;;;28.46;22.37;99294.25;4456990;32;33932;-85
2022/06/22 11:17:36;;;;;;;0.57;0.57;;;;;;;28.60;21.98;99284.09;4464739;32;34832;-85
2022/06/22 11:20:35;;;;;;;2.28;0.57;;;;;;;28.66;23.65;99279.00;4458234;32;34228;-84
2022/06/22 11:23:09;;;;;;;0.30;0.30;;;;;;;28.68;19.91;99278.84;4458679;32;33436;-84
2022/06/22 11:32:35;;;;;;;0.20;0.20;;;;;;;29.10;20.50;99278.44;4461135;32;34337;-85
2022/06/22 11:35:37;;;;;;;1.02;0.30;;;;;;;29.14;20.66;99269.13;4449276;32;32596;-84
2022/06/22 11:38:48;;;;;;;0.28;0.28;;;;;;;29.78;19.90;99265.44;4453750;32;33476;-85
2022/06/22 11:41:42;;;;;;;0.52;0.40;;;;;;;29.75;21.46;99256.91;4440712;32;33589;-84
2022/06/22 11:48:08;;;;;;;1.95;0.40;;;;;;;30.26;23.08;99252.66;4454436;32;32204;-85
2022/06/22 11:50:49;;;;;;;3.00;0.93;;;;;;;30.16;22.90;99244.69;4440700;32;33547;-85
2022/06/22 11:53:33;;;;;;;0.85;0.68;;;;;;;30.16;22.08;99231.31;4450734;32;34061;-85
2022/06/22 11:56:08;;;;;;;0.28;0.25;;;;;;;30.45;23.41;99232.84;4445627;32;32994;-84
2022/06/22 11:58:48;;;;;;;0.22;0.22;;;;;;;30.49;22.19;99223.50;4447729;32;33285;-84
2022/06/22 12:01:40;;;;;;;0.50;0.43;;;;;;;29.43;23.17;99228.88;4447868;32;33699;-84
2022/06/22 12:04:31;;;;;;;0.40;0.30;;;;;;;29.27;23.59;99234.03;4451055;32;34669;-84
2022/06/22 12:07:39;;;;;;;1.12;0.40;;;;;;;29.70;22.96;99233.31;4458097;32;33796;-85
2022/06/22 12:10:25;;;;;;;0.90;0.60;;;;;;;30.23;22.47;99236.00;4439578;32;32720;-85
2022/06/22 12:13:18;;;;;;;0.70;0.40;;;;;;;30.45;22.47;99222.16;4458600;32;33858;-85
2022/06/22 12:15:56;;;;;;;1.08;0.50;;;;;;;31.01;21.13;99226.09;4441286;32;34120;-85
2022/06/22 12:18:41;;;;;;;0.30;0.30;;;;;;;30.99;20.82;99224.56;4449304;32;34270;-84
2022/06/22 12:21:25;;;;;;;0.37;0.30;;;;;;;30.55;21.09;99224.72;4450634;32;34043;-85
2022/06/22 12:23:57;;;;;;;1.85;0.50;;;;;;;30.66;21.99;99219.06;4449519;32;33976;-85
2022/06/22 12:26:36;;;;;;;0.80;0.50;;;;;;;31.07;22.27;99223.75;4450324;32;34045;-85
2022/06/22 12:29:24;;;;;;;0.65;0.50;;;;;;;30.88;21.76;99223.03;4449185;32;34051;-84
2022/06/22 12:31:58;;;;;;;0.90;0.45;;;;;;;31.02;22.09;99219.72;4453832;32;32977;-84
2022/06/22 12:34:43;;;;;;;0.52;0.40;;;;;;;31.44;20.45;99231.41;4452916;32;34396;-84
2022/06/22 12:37:16;;;;;;;1.08;0.65;;;;;;;31.39;21.36;99223.87;4452177;32;34709;-85
2022/06/22 12:39:47;;;;;;;2.75;1.02;;;;;;;30.99;20.90;99220.03;4452257;32;34389;-84
2022/06/22 12:42:39;;;;;;;1.05;0.75;;;;;;;30.91;21.04;99212.00;4452129;32;33284;-84
2022/06/22 12:45:18;;;;;;;0.62;0.47;;;;;;;31.11;20.97;99199.16;4453584;32;34529;-85
2022/06/22 12:48:04;;;;;;;1.83;0.65;;;;;;;31.65;22.25;99207.63;4445816;32;33144;-84
2022/06/22 12:50:49;;;;;;;0.95;0.50;;;;;;;31.77;22.41;99202.75;4452378;32;34172;-85